sensor_id;sensor_type;location;lat;lon;timestamp;P1;durP1;ratioP1;P2;durP2;ratioP2
70150;SDS011;57517;43.562;19.540;2023-02-15T00:02:13;143.63;;;105.03;;
70150;SDS011;57517;43.562;19.540;2023-02-15T00:04:39;129.65;;;99.07;;
70150;SDS011;57517;43.562;19.540;2023-02-15T00:07:11;136.05;;;99.03;;
70150;SDS011;57517;43.562;19.540;2023-02-15T00:09:38;139.98;;;104.60;;
70150;SDS011;57517;43.562;19.540;2023-02-15T00:12:04;151.00;;;114.60;;
70150;SDS011;57517;43.562;19.540;2023-02-15T00:14:29;141.38;;;102.25;;
70150;SDS011;57517;43.562;19.540;2023-02-15T00:16:55;126.18;;;93.57;;
70150;SDS011;57517;43.562;19.540;2023-02-15T00:19:24;109.60;;;84.55;;
70150;SDS011;57517;43.562;19.540;2023-02-15T00:21:50;109.80;;;82.13;;
70150;SDS011;57517;43.562;19.540;2023-02-15T00:24:17;128.45;;;95.07;;
70150;SDS011;57517;43.562;19.540;2023-02-15T00:26:44;131.05;;;99.80;;
70150;SDS011;57517;43.562;19.540;2023-02-15T00:29:11;139.57;;;101.88;;
70150;SDS011;57517;43.562;19.540;2023-02-15T00:31:37;134.95;;;100.68;;
70150;SDS011;57517;43.562;19.540;2023-02-15T00:36:29;136.10;;;102.60;;
70150;SDS011;57517;43.562;19.540;2023-02-15T00:38:55;138.82;;;105.70;;
70150;SDS011;57517;43.562;19.540;2023-02-15T00:41:21;141.70;;;108.43;;
70150;SDS011;57517;43.562;19.540;2023-02-15T00:43:47;157.10;;;113.22;;
70150;SDS011;57517;43.562;19.540;2023-02-15T00:46:12;151.18;;;112.68;;
70150;SDS011;57517;43.562;19.540;2023-02-15T00:48:38;148.77;;;112.82;;
70150;SDS011;57517;43.562;19.540;2023-02-15T00:51:04;139.40;;;107.55;;
70150;SDS011;57517;43.562;19.540;2023-02-15T00:53:29;144.88;;;106.05;;
70150;SDS011;57517;43.562;19.540;2023-02-15T00:55:56;137.95;;;103.45;;
70150;SDS011;57517;43.562;19.540;2023-02-15T00:58:23;141.63;;;104.72;;
70150;SDS011;57517;43.562;19.540;2023-02-15T01:00:49;129.75;;;96.13;;
70150;SDS011;57517;43.562;19.540;2023-02-15T01:03:16;139.48;;;99.20;;
70150;SDS011;57517;43.562;19.540;2023-02-15T01:05:43;129.93;;;97.63;;
70150;SDS011;57517;43.562;19.540;2023-02-15T01:08:09;122.18;;;93.40;;
70150;SDS011;57517;43.562;19.540;2023-02-15T01:10:35;123.40;;;93.22;;
70150;SDS011;57517;43.562;19.540;2023-02-15T01:13:02;125.95;;;94.50;;
70150;SDS011;57517;43.562;19.540;2023-02-15T01:15:28;138.43;;;95.30;;
70150;SDS011;57517;43.562;19.540;2023-02-15T01:17:54;130.85;;;91.43;;
70150;SDS011;57517;43.562;19.540;2023-02-15T01:20:20;133.07;;;92.47;;
70150;SDS011;57517;43.562;19.540;2023-02-15T01:22:51;129.90;;;95.65;;
70150;SDS011;57517;43.562;19.540;2023-02-15T01:25:18;133.23;;;94.50;;
70150;SDS011;57517;43.562;19.540;2023-02-15T01:27:45;138.82;;;100.28;;
70150;SDS011;57517;43.562;19.540;2023-02-15T01:30:11;129.60;;;96.55;;
70150;SDS011;57517;43.562;19.540;2023-02-15T01:32:38;131.13;;;96.93;;
70150;SDS011;57517;43.562;19.540;2023-02-15T01:35:04;136.15;;;92.85;;
70150;SDS011;57517;43.562;19.540;2023-02-15T01:37:31;128.88;;;94.40;;
70150;SDS011;57517;43.562;19.540;2023-02-15T01:39:57;126.10;;;95.30;;
70150;SDS011;57517;43.562;19.540;2023-02-15T01:42:25;129.70;;;94.43;;
70150;SDS011;57517;43.562;19.540;2023-02-15T01:50:21;115.90;;;90.63;;
70150;SDS011;57517;43.562;19.540;2023-02-15T01:55:40;126.90;;;93.28;;
70150;SDS011;57517;43.562;19.540;2023-02-15T01:58:11;138.15;;;100.18;;
70150;SDS011;57517;43.562;19.540;2023-02-15T02:00:37;126.25;;;91.47;;
70150;SDS011;57517;43.562;19.540;2023-02-15T02:03:03;123.32;;;90.38;;
70150;SDS011;57517;43.562;19.540;2023-02-15T02:05:29;114.15;;;85.97;;
70150;SDS011;57517;43.562;19.540;2023-02-15T02:07:56;111.22;;;78.85;;
70150;SDS011;57517;43.562;19.540;2023-02-15T02:10:25;109.30;;;78.47;;
70150;SDS011;57517;43.562;19.540;2023-02-15T02:12:54;110.00;;;82.18;;
70150;SDS011;57517;43.562;19.540;2023-02-15T02:15:36;115.47;;;81.75;;
70150;SDS011;57517;43.562;19.540;2023-02-15T02:27:09;118.30;;;84.65;;
70150;SDS011;57517;43.562;19.540;2023-02-15T02:40:39;118.88;;;85.63;;
70150;SDS011;57517;43.562;19.540;2023-02-15T02:43:11;124.93;;;87.43;;
70150;SDS011;57517;43.562;19.540;2023-02-15T02:45:50;122.55;;;86.65;;
70150;SDS011;57517;43.562;19.540;2023-02-15T02:48:23;111.30;;;79.10;;
70150;SDS011;57517;43.562;19.540;2023-02-15T02:50:52;110.05;;;79.72;;
70150;SDS011;57517;43.562;19.540;2023-02-15T02:53:18;107.95;;;74.88;;
70150;SDS011;57517;43.562;19.540;2023-02-15T02:55:49;98.10;;;73.35;;
70150;SDS011;57517;43.562;19.540;2023-02-15T03:03:51;107.97;;;78.28;;
70150;SDS011;57517;43.562;19.540;2023-02-15T03:09:27;117.50;;;83.55;;
70150;SDS011;57517;43.562;19.540;2023-02-15T03:11:59;122.20;;;85.47;;
70150;SDS011;57517;43.562;19.540;2023-02-15T03:14:28;105.43;;;77.15;;
70150;SDS011;57517;43.562;19.540;2023-02-15T03:16:54;102.75;;;76.75;;
70150;SDS011;57517;43.562;19.540;2023-02-15T03:19:24;112.05;;;78.95;;
70150;SDS011;57517;43.562;19.540;2023-02-15T03:21:56;119.57;;;86.28;;
70150;SDS011;57517;43.562;19.540;2023-02-15T03:24:35;126.00;;;86.65;;
70150;SDS011;57517;43.562;19.540;2023-02-15T03:27:12;114.70;;;83.90;;
70150;SDS011;57517;43.562;19.540;2023-02-15T03:29:43;106.78;;;80.38;;
70150;SDS011;57517;43.562;19.540;2023-02-15T03:32:13;109.97;;;81.18;;
70150;SDS011;57517;43.562;19.540;2023-02-15T03:34:40;107.38;;;79.07;;
70150;SDS011;57517;43.562;19.540;2023-02-15T03:40:16;110.72;;;80.05;;
70150;SDS011;57517;43.562;19.540;2023-02-15T03:43:18;120.72;;;88.15;;
70150;SDS011;57517;43.562;19.540;2023-02-15T03:45:45;119.75;;;87.07;;
70150;SDS011;57517;43.562;19.540;2023-02-15T03:48:27;134.27;;;95.50;;
70150;SDS011;57517;43.562;19.540;2023-02-15T03:50:58;132.35;;;94.70;;
70150;SDS011;57517;43.562;19.540;2023-02-15T03:53:46;126.30;;;96.80;;
70150;SDS011;57517;43.562;19.540;2023-02-15T03:56:14;135.95;;;97.90;;
70150;SDS011;57517;43.562;19.540;2023-02-15T03:58:39;128.57;;;94.65;;
70150;SDS011;57517;43.562;19.540;2023-02-15T04:01:27;124.87;;;90.00;;
70150;SDS011;57517;43.562;19.540;2023-02-15T04:04:26;111.03;;;81.40;;
70150;SDS011;57517;43.562;19.540;2023-02-15T04:06:55;110.47;;;78.72;;
70150;SDS011;57517;43.562;19.540;2023-02-15T04:09:21;111.10;;;82.32;;
70150;SDS011;57517;43.562;19.540;2023-02-15T04:12:05;112.15;;;78.60;;
70150;SDS011;57517;43.562;19.540;2023-02-15T04:14:32;114.82;;;86.47;;
70150;SDS011;57517;43.562;19.540;2023-02-15T04:17:16;121.50;;;89.93;;
70150;SDS011;57517;43.562;19.540;2023-02-15T04:19:42;118.85;;;85.28;;
70150;SDS011;57517;43.562;19.540;2023-02-15T04:22:26;122.90;;;88.78;;
70150;SDS011;57517;43.562;19.540;2023-02-15T04:25:10;124.40;;;90.23;;
70150;SDS011;57517;43.562;19.540;2023-02-15T04:27:41;122.35;;;91.63;;
70150;SDS011;57517;43.562;19.540;2023-02-15T04:30:08;124.95;;;89.18;;
70150;SDS011;57517;43.562;19.540;2023-02-15T04:32:36;128.55;;;92.35;;
70150;SDS011;57517;43.562;19.540;2023-02-15T04:35:03;139.15;;;96.28;;
70150;SDS011;57517;43.562;19.540;2023-02-15T04:37:30;132.98;;;95.72;;
70150;SDS011;57517;43.562;19.540;2023-02-15T04:39:56;119.60;;;88.45;;
70150;SDS011;57517;43.562;19.540;2023-02-15T04:42:24;111.43;;;80.28;;
70150;SDS011;57517;43.562;19.540;2023-02-15T04:44:50;99.82;;;69.18;;
70150;SDS011;57517;43.562;19.540;2023-02-15T04:47:17;85.50;;;59.67;;
70150;SDS011;57517;43.562;19.540;2023-02-15T04:49:43;78.57;;;51.80;;
70150;SDS011;57517;43.562;19.540;2023-02-15T04:52:08;67.93;;;50.22;;
70150;SDS011;57517;43.562;19.540;2023-02-15T04:54:34;70.45;;;52.10;;
70150;SDS011;57517;43.562;19.540;2023-02-15T04:57:00;76.88;;;56.67;;
70150;SDS011;57517;43.562;19.540;2023-02-15T04:59:26;89.40;;;64.63;;
70150;SDS011;57517;43.562;19.540;2023-02-15T05:01:52;92.43;;;69.45;;
70150;SDS011;57517;43.562;19.540;2023-02-15T05:04:17;106.93;;;75.47;;
70150;SDS011;57517;43.562;19.540;2023-02-15T05:06:43;111.60;;;82.63;;
70150;SDS011;57517;43.562;19.540;2023-02-15T05:09:10;116.13;;;84.93;;
70150;SDS011;57517;43.562;19.540;2023-02-15T05:11:36;117.60;;;85.72;;
70150;SDS011;57517;43.562;19.540;2023-02-15T05:14:02;121.90;;;91.60;;
70150;SDS011;57517;43.562;19.540;2023-02-15T05:16:28;127.15;;;93.10;;
70150;SDS011;57517;43.562;19.540;2023-02-15T05:18:53;122.13;;;87.70;;
70150;SDS011;57517;43.562;19.540;2023-02-15T05:21:19;114.38;;;84.10;;
70150;SDS011;57517;43.562;19.540;2023-02-15T05:23:45;114.03;;;84.38;;
70150;SDS011;57517;43.562;19.540;2023-02-15T05:26:11;124.90;;;90.38;;
70150;SDS011;57517;43.562;19.540;2023-02-15T05:28:59;120.90;;;87.85;;
70150;SDS011;57517;43.562;19.540;2023-02-15T05:31:25;123.65;;;87.00;;
70150;SDS011;57517;43.562;19.540;2023-02-15T05:33:51;122.30;;;85.50;;
70150;SDS011;57517;43.562;19.540;2023-02-15T05:36:16;122.35;;;85.97;;
70150;SDS011;57517;43.562;19.540;2023-02-15T05:38:42;124.80;;;89.13;;
70150;SDS011;57517;43.562;19.540;2023-02-15T05:41:08;106.45;;;76.72;;
70150;SDS011;57517;43.562;19.540;2023-02-15T05:43:36;90.63;;;64.30;;
70150;SDS011;57517;43.562;19.540;2023-02-15T05:46:03;99.05;;;71.80;;
70150;SDS011;57517;43.562;19.540;2023-02-15T05:48:29;101.82;;;75.68;;
70150;SDS011;57517;43.562;19.540;2023-02-15T05:53:35;111.85;;;80.13;;
70150;SDS011;57517;43.562;19.540;2023-02-15T05:56:03;112.65;;;80.18;;
70150;SDS011;57517;43.562;19.540;2023-02-15T05:58:34;112.05;;;81.75;;
70150;SDS011;57517;43.562;19.540;2023-02-15T06:01:12;113.32;;;81.68;;
70150;SDS011;57517;43.562;19.540;2023-02-15T06:03:42;119.18;;;83.93;;
70150;SDS011;57517;43.562;19.540;2023-02-15T06:06:09;123.55;;;88.72;;
70150;SDS011;57517;43.562;19.540;2023-02-15T06:08:35;116.80;;;86.57;;
70150;SDS011;57517;43.562;19.540;2023-02-15T06:11:02;122.78;;;91.18;;
70150;SDS011;57517;43.562;19.540;2023-02-15T06:13:28;111.93;;;82.18;;
70150;SDS011;57517;43.562;19.540;2023-02-15T06:15:54;112.68;;;84.57;;
70150;SDS011;57517;43.562;19.540;2023-02-15T06:18:20;120.57;;;90.10;;
70150;SDS011;57517;43.562;19.540;2023-02-15T06:20:46;119.78;;;88.45;;
70150;SDS011;57517;43.562;19.540;2023-02-15T06:23:12;118.72;;;90.07;;
70150;SDS011;57517;43.562;19.540;2023-02-15T06:25:38;121.57;;;90.65;;
70150;SDS011;57517;43.562;19.540;2023-02-15T06:28:04;114.00;;;88.28;;
70150;SDS011;57517;43.562;19.540;2023-02-15T06:30:30;135.43;;;90.78;;
70150;SDS011;57517;43.562;19.540;2023-02-15T06:32:56;118.25;;;88.05;;
70150;SDS011;57517;43.562;19.540;2023-02-15T06:35:22;117.28;;;86.07;;
70150;SDS011;57517;43.562;19.540;2023-02-15T06:37:48;115.68;;;83.55;;
70150;SDS011;57517;43.562;19.540;2023-02-15T06:40:14;117.13;;;88.10;;
70150;SDS011;57517;43.562;19.540;2023-02-15T06:42:43;129.27;;;92.30;;
70150;SDS011;57517;43.562;19.540;2023-02-15T06:45:10;125.47;;;89.70;;
70150;SDS011;57517;43.562;19.540;2023-02-15T06:47:36;127.18;;;93.22;;
70150;SDS011;57517;43.562;19.540;2023-02-15T06:50:02;125.53;;;92.15;;
70150;SDS011;57517;43.562;19.540;2023-02-15T06:52:29;133.35;;;98.53;;
70150;SDS011;57517;43.562;19.540;2023-02-15T06:54:54;130.38;;;100.18;;
70150;SDS011;57517;43.562;19.540;2023-02-15T06:57:20;133.95;;;101.85;;
70150;SDS011;57517;43.562;19.540;2023-02-15T06:59:46;147.13;;;106.03;;
70150;SDS011;57517;43.562;19.540;2023-02-15T07:02:12;134.73;;;101.60;;
70150;SDS011;57517;43.562;19.540;2023-02-15T07:04:38;128.25;;;100.03;;
70150;SDS011;57517;43.562;19.540;2023-02-15T07:07:04;140.68;;;98.50;;
70150;SDS011;57517;43.562;19.540;2023-02-15T07:09:32;130.93;;;97.20;;
70150;SDS011;57517;43.562;19.540;2023-02-15T07:11:58;140.20;;;99.07;;
70150;SDS011;57517;43.562;19.540;2023-02-15T07:14:42;144.73;;;104.00;;
70150;SDS011;57517;43.562;19.540;2023-02-15T07:17:08;132.75;;;95.18;;
70150;SDS011;57517;43.562;19.540;2023-02-15T07:19:33;139.02;;;101.97;;
70150;SDS011;57517;43.562;19.540;2023-02-15T07:21:59;151.90;;;113.35;;
70150;SDS011;57517;43.562;19.540;2023-02-15T07:24:25;147.57;;;113.80;;
70150;SDS011;57517;43.562;19.540;2023-02-15T07:26:51;147.18;;;112.50;;
70150;SDS011;57517;43.562;19.540;2023-02-15T07:29:16;144.07;;;108.88;;
70150;SDS011;57517;43.562;19.540;2023-02-15T07:31:42;139.55;;;105.57;;
70150;SDS011;57517;43.562;19.540;2023-02-15T07:34:10;142.93;;;108.50;;
70150;SDS011;57517;43.562;19.540;2023-02-15T07:36:36;146.57;;;111.20;;
70150;SDS011;57517;43.562;19.540;2023-02-15T07:39:02;148.15;;;111.90;;
70150;SDS011;57517;43.562;19.540;2023-02-15T07:41:28;139.30;;;108.05;;
70150;SDS011;57517;43.562;19.540;2023-02-15T07:43:54;154.20;;;116.30;;
70150;SDS011;57517;43.562;19.540;2023-02-15T07:46:19;149.57;;;117.57;;
70150;SDS011;57517;43.562;19.540;2023-02-15T07:48:45;152.93;;;119.53;;
70150;SDS011;57517;43.562;19.540;2023-02-15T07:51:11;151.38;;;118.05;;
70150;SDS011;57517;43.562;19.540;2023-02-15T07:53:38;155.85;;;121.63;;
70150;SDS011;57517;43.562;19.540;2023-02-15T07:56:05;162.00;;;121.25;;
70150;SDS011;57517;43.562;19.540;2023-02-15T07:58:34;151.93;;;123.50;;
70150;SDS011;57517;43.562;19.540;2023-02-15T08:03:51;124.72;;;103.18;;
70150;SDS011;57517;43.562;19.540;2023-02-15T08:06:18;143.57;;;112.78;;
70150;SDS011;57517;43.562;19.540;2023-02-15T08:08:44;134.80;;;106.50;;
70150;SDS011;57517;43.562;19.540;2023-02-15T08:11:28;130.38;;;105.05;;
70150;SDS011;57517;43.562;19.540;2023-02-15T08:13:59;127.82;;;107.95;;
70150;SDS011;57517;43.562;19.540;2023-02-15T08:16:31;164.30;;;137.27;;
70150;SDS011;57517;43.562;19.540;2023-02-15T08:19:03;152.05;;;128.75;;
70150;SDS011;57517;43.562;19.540;2023-02-15T08:21:33;146.45;;;125.75;;
70150;SDS011;57517;43.562;19.540;2023-02-15T08:24:00;135.30;;;115.75;;
70150;SDS011;57517;43.562;19.540;2023-02-15T08:26:27;110.03;;;91.95;;
70150;SDS011;57517;43.562;19.540;2023-02-15T08:28:54;169.13;;;137.90;;
70150;SDS011;57517;43.562;19.540;2023-02-15T08:31:20;133.95;;;113.85;;
70150;SDS011;57517;43.562;19.540;2023-02-15T08:33:47;66.65;;;55.53;;
70150;SDS011;57517;43.562;19.540;2023-02-15T08:36:15;105.32;;;94.03;;
70150;SDS011;57517;43.562;19.540;2023-02-15T08:38:43;88.00;;;77.93;;
70150;SDS011;57517;43.562;19.540;2023-02-15T08:41:22;83.00;;;71.90;;
70150;SDS011;57517;43.562;19.540;2023-02-15T08:43:53;68.50;;;57.15;;
70150;SDS011;57517;43.562;19.540;2023-02-15T08:46:21;82.15;;;73.13;;
70150;SDS011;57517;43.562;19.540;2023-02-15T08:48:48;84.88;;;73.93;;
70150;SDS011;57517;43.562;19.540;2023-02-15T08:51:19;59.13;;;50.50;;
70150;SDS011;57517;43.562;19.540;2023-02-15T08:53:46;59.15;;;52.70;;
70150;SDS011;57517;43.562;19.540;2023-02-15T08:56:14;48.80;;;43.55;;
70150;SDS011;57517;43.562;19.540;2023-02-15T08:58:40;35.35;;;31.52;;
70150;SDS011;57517;43.562;19.540;2023-02-15T09:01:10;26.65;;;23.38;;
70150;SDS011;57517;43.562;19.540;2023-02-15T09:03:37;24.05;;;21.45;;
70150;SDS011;57517;43.562;19.540;2023-02-15T09:06:03;20.85;;;18.00;;
70150;SDS011;57517;43.562;19.540;2023-02-15T09:08:29;24.55;;;21.00;;
70150;SDS011;57517;43.562;19.540;2023-02-15T09:11:04;20.45;;;17.42;;
70150;SDS011;57517;43.562;19.540;2023-02-15T09:13:34;20.80;;;18.60;;
70150;SDS011;57517;43.562;19.540;2023-02-15T09:16:01;18.83;;;16.83;;
70150;SDS011;57517;43.562;19.540;2023-02-15T09:18:29;19.17;;;16.35;;
70150;SDS011;57517;43.562;19.540;2023-02-15T09:20:56;18.42;;;16.45;;
70150;SDS011;57517;43.562;19.540;2023-02-15T09:23:23;18.85;;;16.85;;
70150;SDS011;57517;43.562;19.540;2023-02-15T09:25:49;18.95;;;17.05;;
70150;SDS011;57517;43.562;19.540;2023-02-15T09:28:15;17.08;;;15.00;;
70150;SDS011;57517;43.562;19.540;2023-02-15T09:30:41;18.38;;;15.95;;
70150;SDS011;57517;43.562;19.540;2023-02-15T09:33:07;16.92;;;14.30;;
70150;SDS011;57517;43.562;19.540;2023-02-15T09:35:33;17.73;;;15.30;;
70150;SDS011;57517;43.562;19.540;2023-02-15T09:37:59;19.42;;;16.27;;
70150;SDS011;57517;43.562;19.540;2023-02-15T09:40:25;17.60;;;14.88;;
70150;SDS011;57517;43.562;19.540;2023-02-15T09:43:38;17.65;;;14.57;;
70150;SDS011;57517;43.562;19.540;2023-02-15T09:48:40;17.15;;;15.13;;
70150;SDS011;57517;43.562;19.540;2023-02-15T09:54:34;18.20;;;15.57;;
70150;SDS011;57517;43.562;19.540;2023-02-15T09:56:42;15.48;;;13.75;;
70150;SDS011;57517;43.562;19.540;2023-02-15T10:02:08;18.13;;;13.70;;
70150;SDS011;57517;43.562;19.540;2023-02-15T10:05:02;14.80;;;13.02;;
70150;SDS011;57517;43.562;19.540;2023-02-15T10:10:01;15.98;;;13.43;;
70150;SDS011;57517;43.562;19.540;2023-02-15T10:28:30;16.20;;;13.32;;
70150;SDS011;57517;43.562;19.540;2023-02-15T10:31:27;17.55;;;14.05;;
70150;SDS011;57517;43.562;19.540;2023-02-15T11:03:26;18.35;;;13.23;;
70150;SDS011;57517;43.562;19.540;2023-02-15T11:06:09;13.90;;;12.07;;
70150;SDS011;57517;43.562;19.540;2023-02-15T11:08:51;16.02;;;12.32;;
70150;SDS011;57517;43.562;19.540;2023-02-15T11:11:22;16.75;;;13.15;;
70150;SDS011;57517;43.562;19.540;2023-02-15T11:14:02;16.30;;;12.85;;
70150;SDS011;57517;43.562;19.540;2023-02-15T11:19:06;16.20;;;12.77;;
70150;SDS011;57517;43.562;19.540;2023-02-15T11:21:45;18.38;;;14.23;;
70150;SDS011;57517;43.562;19.540;2023-02-15T11:24:16;17.35;;;13.45;;
70150;SDS011;57517;43.562;19.540;2023-02-15T11:32:21;16.40;;;12.40;;
70150;SDS011;57517;43.562;19.540;2023-02-15T11:40:23;22.40;;;15.27;;
70150;SDS011;57517;43.562;19.540;2023-02-15T11:42:56;23.52;;;19.30;;
70150;SDS011;57517;43.562;19.540;2023-02-15T11:45:30;27.42;;;20.98;;
70150;SDS011;57517;43.562;19.540;2023-02-15T11:47:59;23.35;;;16.92;;
70150;SDS011;57517;43.562;19.540;2023-02-15T11:50:27;22.65;;;16.98;;
70150;SDS011;57517;43.562;19.540;2023-02-15T11:52:58;28.67;;;20.13;;
70150;SDS011;57517;43.562;19.540;2023-02-15T11:55:29;34.72;;;24.65;;
70150;SDS011;57517;43.562;19.540;2023-02-15T11:58:04;37.67;;;27.50;;
70150;SDS011;57517;43.562;19.540;2023-02-15T12:00:40;34.67;;;22.80;;
70150;SDS011;57517;43.562;19.540;2023-02-15T12:03:12;24.42;;;18.10;;
70150;SDS011;57517;43.562;19.540;2023-02-15T12:05:44;33.85;;;20.30;;
70150;SDS011;57517;43.562;19.540;2023-02-15T12:08:20;22.05;;;14.48;;
70150;SDS011;57517;43.562;19.540;2023-02-15T12:10:57;22.27;;;15.00;;
70150;SDS011;57517;43.562;19.540;2023-02-15T12:13:28;17.08;;;12.88;;
70150;SDS011;57517;43.562;19.540;2023-02-15T12:15:56;18.40;;;13.32;;
70150;SDS011;57517;43.562;19.540;2023-02-15T12:21:09;17.02;;;13.77;;
70150;SDS011;57517;43.562;19.540;2023-02-15T12:23:53;17.73;;;12.77;;
70150;SDS011;57517;43.562;19.540;2023-02-15T12:26:29;17.08;;;12.95;;
70150;SDS011;57517;43.562;19.540;2023-02-15T12:29:00;18.92;;;13.82;;
70150;SDS011;57517;43.562;19.540;2023-02-15T12:31:36;20.50;;;13.23;;
70150;SDS011;57517;43.562;19.540;2023-02-15T12:34:09;21.45;;;13.65;;
70150;SDS011;57517;43.562;19.540;2023-02-15T12:36:57;19.88;;;12.68;;
70150;SDS011;57517;43.562;19.540;2023-02-15T12:39:32;18.45;;;13.05;;
70150;SDS011;57517;43.562;19.540;2023-02-15T12:42:03;18.27;;;12.20;;
70150;SDS011;57517;43.562;19.540;2023-02-15T12:44:38;20.50;;;12.63;;
70150;SDS011;57517;43.562;19.540;2023-02-15T12:47:18;20.50;;;13.63;;
70150;SDS011;57517;43.562;19.540;2023-02-15T12:49:45;17.55;;;13.38;;
70150;SDS011;57517;43.562;19.540;2023-02-15T12:52:36;21.90;;;14.13;;
70150;SDS011;57517;43.562;19.540;2023-02-15T12:55:21;22.70;;;15.55;;
70150;SDS011;57517;43.562;19.540;2023-02-15T13:00:42;21.75;;;14.90;;
70150;SDS011;57517;43.562;19.540;2023-02-15T13:03:15;20.50;;;15.90;;
70150;SDS011;57517;43.562;19.540;2023-02-15T13:05:47;26.10;;;19.20;;
70150;SDS011;57517;43.562;19.540;2023-02-15T13:08:33;30.63;;;22.23;;
70150;SDS011;57517;43.562;19.540;2023-02-15T13:11:11;31.75;;;20.42;;
70150;SDS011;57517;43.562;19.540;2023-02-15T13:13:50;28.70;;;19.05;;
70150;SDS011;57517;43.562;19.540;2023-02-15T13:16:38;21.67;;;16.02;;
70150;SDS011;57517;43.562;19.540;2023-02-15T13:21:43;18.08;;;12.80;;
70150;SDS011;57517;43.562;19.540;2023-02-15T13:26:58;26.85;;;20.80;;
70150;SDS011;57517;43.562;19.540;2023-02-15T13:29:28;26.33;;;17.15;;
70150;SDS011;57517;43.562;19.540;2023-02-15T13:31:58;21.80;;;14.65;;
70150;SDS011;57517;43.562;19.540;2023-02-15T13:34:32;19.17;;;13.52;;
70150;SDS011;57517;43.562;19.540;2023-02-15T13:39:40;18.50;;;14.05;;
70150;SDS011;57517;43.562;19.540;2023-02-15T13:48:01;19.30;;;13.75;;
70150;SDS011;57517;43.562;19.540;2023-02-15T13:53:35;21.98;;;15.73;;
70150;SDS011;57517;43.562;19.540;2023-02-15T14:01:49;26.08;;;17.70;;
70150;SDS011;57517;43.562;19.540;2023-02-15T14:04:35;24.42;;;17.67;;
70150;SDS011;57517;43.562;19.540;2023-02-15T14:13:02;26.67;;;18.83;;
70150;SDS011;57517;43.562;19.540;2023-02-15T14:18:32;27.05;;;20.40;;
70150;SDS011;57517;43.562;19.540;2023-02-15T14:24:14;35.15;;;26.52;;
70150;SDS011;57517;43.562;19.540;2023-02-15T14:32:40;51.25;;;35.10;;
70150;SDS011;57517;43.562;19.540;2023-02-15T14:35:13;67.35;;;44.60;;
70150;SDS011;57517;43.562;19.540;2023-02-15T14:48:55;68.30;;;51.05;;
70150;SDS011;57517;43.562;19.540;2023-02-15T14:56:41;71.93;;;53.13;;
70150;SDS011;57517;43.562;19.540;2023-02-15T15:01:55;79.50;;;56.90;;
70150;SDS011;57517;43.562;19.540;2023-02-15T15:04:44;105.85;;;76.45;;
70150;SDS011;57517;43.562;19.540;2023-02-15T15:12:58;69.07;;;50.55;;
70150;SDS011;57517;43.562;19.540;2023-02-15T15:15:55;70.03;;;49.83;;
70150;SDS011;57517;43.562;19.540;2023-02-15T15:21:50;88.43;;;59.15;;
70150;SDS011;57517;43.562;19.540;2023-02-15T15:30:02;78.55;;;55.42;;
70150;SDS011;57517;43.562;19.540;2023-02-15T15:49:28;60.60;;;43.97;;
70150;SDS011;57517;43.562;19.540;2023-02-15T15:51:56;56.35;;;41.67;;
70150;SDS011;57517;43.562;19.540;2023-02-15T15:54:27;52.08;;;36.83;;
70150;SDS011;57517;43.562;19.540;2023-02-15T15:56:57;55.97;;;38.80;;
70150;SDS011;57517;43.562;19.540;2023-02-15T15:59:32;58.20;;;39.47;;
70150;SDS011;57517;43.562;19.540;2023-02-15T16:02:06;68.50;;;46.83;;
70150;SDS011;57517;43.562;19.540;2023-02-15T16:04:34;73.80;;;49.77;;
70150;SDS011;57517;43.562;19.540;2023-02-15T16:09:41;80.22;;;55.25;;
70150;SDS011;57517;43.562;19.540;2023-02-15T16:12:22;75.70;;;56.40;;
70150;SDS011;57517;43.562;19.540;2023-02-15T16:14:49;48.83;;;35.60;;
70150;SDS011;57517;43.562;19.540;2023-02-15T16:17:19;143.45;;;100.95;;
70150;SDS011;57517;43.562;19.540;2023-02-15T16:19:47;36.65;;;26.83;;
70150;SDS011;57517;43.562;19.540;2023-02-15T16:22:19;35.33;;;25.85;;
70150;SDS011;57517;43.562;19.540;2023-02-15T16:27:29;39.08;;;27.83;;
70150;SDS011;57517;43.562;19.540;2023-02-15T16:30:25;39.13;;;27.20;;
70150;SDS011;57517;43.562;19.540;2023-02-15T16:33:03;39.83;;;27.55;;
70150;SDS011;57517;43.562;19.540;2023-02-15T16:35:34;41.75;;;29.67;;
70150;SDS011;57517;43.562;19.540;2023-02-15T16:38:01;42.58;;;29.80;;
70150;SDS011;57517;43.562;19.540;2023-02-15T16:41:09;43.08;;;30.92;;
70150;SDS011;57517;43.562;19.540;2023-02-15T16:43:20;38.20;;;28.85;;
70150;SDS011;57517;43.562;19.540;2023-02-15T16:45:52;44.80;;;33.10;;
70150;SDS011;57517;43.562;19.540;2023-02-15T16:48:31;52.47;;;35.33;;
70150;SDS011;57517;43.562;19.540;2023-02-15T16:50:59;47.75;;;32.85;;
70150;SDS011;57517;43.562;19.540;2023-02-15T16:53:28;46.17;;;32.65;;
70150;SDS011;57517;43.562;19.540;2023-02-15T16:55:55;43.83;;;33.08;;
70150;SDS011;57517;43.562;19.540;2023-02-15T16:58:43;46.17;;;32.22;;
70150;SDS011;57517;43.562;19.540;2023-02-15T17:01:10;46.00;;;31.50;;
70150;SDS011;57517;43.562;19.540;2023-02-15T17:03:40;46.78;;;32.67;;
70150;SDS011;57517;43.562;19.540;2023-02-15T17:06:20;51.05;;;35.78;;
70150;SDS011;57517;43.562;19.540;2023-02-15T17:08:48;50.90;;;37.25;;
70150;SDS011;57517;43.562;19.540;2023-02-15T17:11:15;50.28;;;36.60;;
70150;SDS011;57517;43.562;19.540;2023-02-15T17:16:32;65.55;;;46.45;;
70150;SDS011;57517;43.562;19.540;2023-02-15T17:19:00;69.00;;;47.90;;
70150;SDS011;57517;43.562;19.540;2023-02-15T17:21:30;70.85;;;47.33;;
70150;SDS011;57517;43.562;19.540;2023-02-15T17:24:01;60.08;;;42.20;;
70150;SDS011;57517;43.562;19.540;2023-02-15T17:26:36;57.10;;;42.05;;
70150;SDS011;57517;43.562;19.540;2023-02-15T17:29:30;64.63;;;43.53;;
70150;SDS011;57517;43.562;19.540;2023-02-15T17:31:57;57.10;;;41.65;;
70150;SDS011;57517;43.562;19.540;2023-02-15T17:37:23;47.95;;;34.75;;
70150;SDS011;57517;43.562;19.540;2023-02-15T17:42:54;52.92;;;37.67;;
70150;SDS011;57517;43.562;19.540;2023-02-15T17:45:20;50.65;;;35.10;;
70150;SDS011;57517;43.562;19.540;2023-02-15T17:47:49;56.42;;;38.22;;
70150;SDS011;57517;43.562;19.540;2023-02-15T17:50:25;65.55;;;45.67;;
70150;SDS011;57517;43.562;19.540;2023-02-15T17:52:52;62.35;;;42.55;;
70150;SDS011;57517;43.562;19.540;2023-02-15T17:55:20;63.08;;;44.80;;
70150;SDS011;57517;43.562;19.540;2023-02-15T17:57:59;73.50;;;51.50;;
70150;SDS011;57517;43.562;19.540;2023-02-15T18:00:26;73.93;;;50.58;;
70150;SDS011;57517;43.562;19.540;2023-02-15T18:03:11;57.95;;;41.78;;
70150;SDS011;57517;43.562;19.540;2023-02-15T18:08:40;43.50;;;30.67;;
70150;SDS011;57517;43.562;19.540;2023-02-15T18:11:25;50.03;;;35.28;;
70150;SDS011;57517;43.562;19.540;2023-02-15T18:14:11;69.88;;;46.55;;